createdAt,value
2019-02-14T00:01:15.446Z,26.23
2019-02-14T00:03:43.723Z,24.38
2019-02-14T00:06:11.984Z,25.97
2019-02-14T00:08:40.245Z,23.03
2019-02-14T00:11:08.506Z,27.00
2019-02-14T00:13:36.773Z,25.77
2019-02-14T00:16:05.034Z,25.63
2019-02-14T00:18:33.317Z,24.20
2019-02-14T00:21:01.584Z,26.90
2019-02-14T00:23:29.855Z,24.18
2019-02-14T00:25:58.113Z,25.40
2019-02-14T00:28:26.386Z,24.17
2019-02-14T00:30:54.645Z,24.77
2019-02-14T00:33:22.898Z,26.43
2019-02-14T00:35:51.168Z,26.03
2019-02-14T00:38:19.423Z,26.47
2019-02-14T00:40:47.679Z,25.93
2019-02-14T00:43:15.942Z,25.90
2019-02-14T00:45:44.204Z,26.68
2019-02-14T00:48:12.490Z,26.13
2019-02-14T00:50:40.741Z,24.40
2019-02-14T00:53:08.994Z,27.40
2019-02-14T00:55:37.244Z,25.13
2019-02-14T00:58:05.505Z,23.27
2019-02-14T01:00:33.836Z,24.83
2019-02-14T01:03:02.113Z,25.17
2019-02-14T01:05:33.625Z,24.17
2019-02-14T01:08:00.400Z,24.80
2019-02-14T01:10:28.662Z,26.87
2019-02-14T01:12:56.932Z,28.20
2019-02-14T01:18:14.151Z,26.82
2019-02-14T01:20:42.405Z,26.35
2019-02-14T01:23:10.666Z,26.10
2019-02-14T01:25:38.925Z,27.48
2019-02-14T01:28:07.203Z,26.48
2019-02-14T01:30:35.461Z,27.10
2019-02-14T01:33:03.718Z,27.47
2019-02-14T01:35:31.993Z,25.70
2019-02-14T01:38:00.248Z,28.00
2019-02-14T01:40:28.508Z,28.73
2019-02-14T01:42:56.770Z,27.90
2019-02-14T01:45:25.043Z,29.02
2019-02-14T01:47:53.302Z,30.07
2019-02-14T01:50:21.572Z,27.47
2019-02-14T01:52:49.838Z,27.23
2019-02-14T01:55:18.102Z,28.93
2019-02-14T01:57:46.366Z,30.47
2019-02-14T02:03:03.752Z,27.53
2019-02-14T02:05:32.008Z,28.92
2019-02-14T02:08:00.279Z,31.20
2019-02-14T02:11:02.643Z,29.27
2019-02-14T02:13:30.918Z,30.67
2019-02-14T02:15:59.177Z,28.37
2019-02-14T02:21:16.407Z,30.88
2019-02-14T02:23:44.665Z,31.68
2019-02-14T02:26:13.092Z,29.63
2019-02-14T02:28:41.355Z,30.12
2019-02-14T02:31:09.623Z,32.47
2019-02-14T02:33:38.886Z,31.68
2019-02-14T02:36:07.163Z,31.30
2019-02-14T02:38:35.427Z,31.37
2019-02-14T02:41:03.685Z,32.13
2019-02-14T02:43:31.947Z,30.55
2019-02-14T02:46:00.235Z,32.17
2019-02-14T02:48:28.497Z,31.10
2019-02-14T02:50:56.755Z,30.70
2019-02-14T02:53:25.032Z,31.23
2019-02-14T02:55:53.292Z,37.83
2019-02-14T02:58:21.554Z,30.93
2019-02-14T03:00:49.816Z,32.08
2019-02-14T03:03:18.073Z,33.63
2019-02-14T03:05:46.338Z,32.70
2019-02-14T03:08:14.641Z,32.77
2019-02-14T03:10:42.888Z,31.47
2019-02-14T03:13:11.147Z,32.00
2019-02-14T03:15:52.252Z,33.97
2019-02-14T03:18:20.509Z,32.20
2019-02-14T03:20:48.773Z,32.48
2019-02-14T03:23:17.048Z,31.87
2019-02-14T03:25:45.305Z,34.80
2019-02-14T03:28:13.560Z,34.67
2019-02-14T03:33:20.783Z,35.87
2019-02-14T03:35:49.053Z,32.60
2019-02-14T03:38:17.311Z,34.63
2019-02-14T03:40:45.561Z,35.20
2019-02-14T03:43:13.829Z,33.50
2019-02-14T03:45:42.394Z,34.92
2019-02-14T03:48:10.665Z,33.67
2019-02-14T03:50:38.943Z,34.20
2019-02-14T03:53:07.210Z,33.02
2019-02-14T03:55:35.470Z,31.50
2019-02-14T03:58:03.741Z,31.63
2019-02-14T04:00:31.995Z,33.20
2019-02-14T04:03:00.256Z,36.03
2019-02-14T04:05:28.531Z,33.20
2019-02-14T04:07:56.775Z,34.17
2019-02-14T04:10:25.048Z,33.60
2019-02-14T04:12:53.307Z,32.93
2019-02-14T04:15:21.569Z,34.13
2019-02-14T04:17:49.831Z,35.50
2019-02-14T04:20:18.107Z,32.43
2019-02-14T04:22:46.368Z,34.80
2019-02-14T04:25:14.626Z,35.60
2019-02-14T04:27:42.876Z,35.00
2019-02-14T04:30:51.186Z,33.73
2019-02-14T04:33:19.443Z,34.70
2019-02-14T04:35:47.727Z,32.70
2019-02-14T04:38:15.978Z,36.53
2019-02-14T04:40:44.233Z,33.60
2019-02-14T04:43:12.508Z,35.00
2019-02-14T04:45:40.763Z,35.10
2019-02-14T04:48:09.027Z,34.63
2019-02-14T04:50:37.301Z,36.00
2019-02-14T04:53:05.567Z,35.27
2019-02-14T04:55:33.835Z,35.13
2019-02-14T04:58:02.094Z,36.70
2019-02-14T05:00:30.357Z,35.53
2019-02-14T05:02:58.614Z,34.70
2019-02-14T05:05:26.870Z,36.20
2019-02-14T05:07:55.127Z,33.70
2019-02-14T05:10:23.396Z,34.45
2019-02-14T05:12:51.658Z,35.55
2019-02-14T05:15:19.936Z,34.23
2019-02-14T05:17:48.194Z,37.25
2019-02-14T05:20:16.456Z,37.55
2019-02-14T05:22:44.720Z,36.80
2019-02-14T05:25:12.996Z,34.90
2019-02-14T05:27:41.236Z,36.27
2019-02-14T05:30:28.846Z,36.13
2019-02-14T05:32:57.108Z,34.50
2019-02-14T05:35:25.378Z,34.90
2019-02-14T05:37:53.640Z,34.30
2019-02-14T05:40:21.919Z,35.83
2019-02-14T05:42:50.186Z,33.95
2019-02-14T05:45:18.451Z,36.77
2019-02-14T05:47:46.703Z,37.50
2019-02-14T05:50:54.993Z,35.13
2019-02-14T05:53:23.284Z,37.93
2019-02-14T05:55:51.568Z,34.77
2019-02-14T05:58:19.841Z,33.17
2019-02-14T06:00:48.100Z,35.10
2019-02-14T06:03:16.371Z,35.35
2019-02-14T06:05:44.622Z,36.20
2019-02-14T06:08:12.896Z,37.67
2019-02-14T06:10:41.171Z,35.47
2019-02-14T06:13:09.428Z,35.03
2019-02-14T06:15:37.703Z,34.63
2019-02-14T06:18:05.975Z,36.05
2019-02-14T06:20:34.229Z,35.20
2019-02-14T06:23:02.501Z,36.98
2019-02-14T06:25:30.753Z,33.03
2019-02-14T06:27:59.013Z,36.42
2019-02-14T06:30:27.267Z,35.40
2019-02-14T06:32:55.534Z,35.30
2019-02-14T06:35:23.794Z,34.50
2019-02-14T06:40:53.621Z,32.80
2019-02-14T06:43:21.908Z,35.77
2019-02-14T06:45:50.156Z,34.87
2019-02-14T06:48:18.417Z,34.20
2019-02-14T06:50:46.681Z,33.53
2019-02-14T06:53:14.945Z,34.73
2019-02-14T06:55:43.202Z,33.37
2019-02-14T06:58:12.807Z,32.33
2019-02-14T07:00:41.443Z,36.60
2019-02-14T07:03:09.693Z,33.70
2019-02-14T07:05:37.963Z,35.10
2019-02-14T07:08:06.225Z,37.40
2019-02-14T07:10:46.710Z,35.88
2019-02-14T07:13:14.966Z,34.20
2019-02-14T07:15:43.233Z,35.40
2019-02-14T07:18:11.511Z,36.27
2019-02-14T07:20:39.781Z,36.43
2019-02-14T07:23:08.039Z,34.50
2019-02-14T07:25:36.331Z,37.43
2019-02-14T07:28:04.557Z,31.97
2019-02-14T07:31:06.647Z,34.83
2019-02-14T07:33:34.901Z,34.40
2019-02-14T07:36:03.157Z,35.57
2019-02-14T07:38:31.422Z,34.40
2019-02-14T07:40:59.690Z,36.20
2019-02-14T07:43:27.962Z,34.60
2019-02-14T07:45:56.265Z,37.05
2019-02-14T07:48:24.535Z,36.77
2019-02-14T07:50:52.794Z,36.53
2019-02-14T07:53:21.058Z,36.90
2019-02-14T07:55:49.329Z,36.63
2019-02-14T07:58:17.597Z,37.03
2019-02-14T08:00:45.861Z,35.90
2019-02-14T08:03:14.149Z,34.58
2019-02-14T08:05:42.419Z,35.10
2019-02-14T08:08:10.677Z,35.27
2019-02-14T08:10:38.937Z,37.20
2019-02-14T08:13:07.204Z,35.20
2019-02-14T08:15:35.500Z,37.57
2019-02-14T08:18:03.841Z,34.27
2019-02-14T08:20:32.085Z,36.40
2019-02-14T08:23:00.351Z,36.30
2019-02-14T08:25:48.013Z,34.23
2019-02-14T08:28:16.280Z,35.00
2019-02-14T08:30:44.541Z,35.67
2019-02-14T08:33:12.804Z,35.47
2019-02-14T08:35:41.069Z,35.70
2019-02-14T08:38:09.333Z,33.67
2019-02-14T08:40:37.592Z,34.73
2019-02-14T08:43:05.858Z,33.23
2019-02-14T08:45:34.114Z,32.83
2019-02-14T08:48:02.501Z,35.28
2019-02-14T08:50:30.780Z,34.40
2019-02-14T08:52:59.036Z,32.55
2019-02-14T08:55:27.291Z,34.83
2019-02-14T08:57:55.557Z,37.03
2019-02-14T09:00:23.820Z,35.92
2019-02-14T09:02:52.070Z,36.70
2019-02-14T09:05:20.342Z,34.37
2019-02-14T09:07:54.776Z,36.00
2019-02-14T09:10:18.592Z,34.63
2019-02-14T09:12:46.854Z,37.27
2019-02-14T09:15:26.714Z,35.93
2019-02-14T09:17:54.973Z,35.63
2019-02-14T09:20:23.220Z,37.60
2019-02-14T09:22:51.475Z,34.03
2019-02-14T09:25:19.740Z,35.00
2019-02-14T09:27:47.990Z,37.33
2019-02-14T09:30:16.320Z,38.05
2019-02-14T09:32:44.577Z,37.30
2019-02-14T09:35:52.869Z,32.60
2019-02-14T09:38:21.139Z,37.07
2019-02-14T09:40:49.386Z,38.23
2019-02-14T09:43:17.640Z,36.17
2019-02-14T09:45:45.892Z,37.27
2019-02-14T09:48:15.185Z,35.88
2019-02-14T09:50:43.448Z,36.08
2019-02-14T09:53:11.700Z,36.20
2019-02-14T09:55:39.955Z,35.57
2019-02-14T09:58:08.216Z,35.93
2019-02-14T10:00:36.470Z,35.67
2019-02-14T10:03:04.764Z,34.97
2019-02-14T10:05:33.010Z,37.00
2019-02-14T10:08:01.275Z,36.30
2019-02-14T10:10:29.530Z,36.27
2019-02-14T10:12:57.773Z,33.17
2019-02-14T10:15:26.035Z,36.40
2019-02-14T10:17:54.306Z,34.15
2019-02-14T10:20:22.562Z,34.60
2019-02-14T10:22:50.804Z,35.30
2019-02-14T10:25:19.078Z,33.23
2019-02-14T10:28:06.670Z,33.03
2019-02-14T10:30:34.942Z,33.65
2019-02-14T10:33:03.179Z,35.48
2019-02-14T10:35:31.450Z,34.60
2019-02-14T10:37:59.703Z,31.47
2019-02-14T10:40:27.972Z,33.30
2019-02-14T10:42:56.233Z,32.30
2019-02-14T10:45:24.554Z,33.20
2019-02-14T10:47:52.820Z,33.60
2019-02-14T10:50:21.079Z,32.93
2019-02-14T10:52:49.352Z,32.53
2019-02-14T10:55:17.615Z,36.00
2019-02-14T10:57:45.870Z,32.20
2019-02-14T11:00:33.468Z,30.82
2019-02-14T11:03:01.717Z,32.23
2019-02-14T11:05:29.973Z,30.77
2019-02-14T11:07:58.236Z,30.87
2019-02-14T11:10:26.498Z,29.27
2019-02-14T11:12:54.750Z,30.33
2019-02-14T11:16:03.036Z,29.37
2019-02-14T11:18:31.312Z,29.80
2019-02-14T11:20:59.575Z,27.93
2019-02-14T11:23:27.843Z,31.83
2019-02-14T11:25:56.118Z,29.73
2019-02-14T11:28:24.358Z,28.83
2019-02-14T11:30:52.606Z,31.07
2019-02-14T11:33:20.926Z,30.10
2019-02-14T11:35:49.132Z,28.07
2019-02-14T11:38:17.389Z,28.73
2019-02-14T11:40:45.642Z,27.70
2019-02-14T11:43:13.909Z,25.07
2019-02-14T11:45:42.167Z,26.27
2019-02-14T11:48:10.434Z,26.13
2019-02-14T11:50:38.693Z,24.75
2019-02-14T11:53:13.901Z,23.38
2019-02-14T11:55:36.926Z,24.17
2019-02-14T11:58:05.172Z,23.05
2019-02-14T12:00:33.434Z,26.10
2019-02-14T12:03:01.703Z,24.40
2019-02-14T12:05:29.977Z,23.70
2019-02-14T12:07:58.226Z,24.67
2019-02-14T12:10:26.507Z,22.20
2019-02-14T12:12:54.759Z,23.27
2019-02-14T12:18:24.581Z,25.30
2019-02-14T12:20:52.837Z,23.20
2019-02-14T12:23:21.084Z,22.30
2019-02-14T12:25:49.344Z,21.37
2019-02-14T12:28:36.941Z,23.07
2019-02-14T12:31:05.217Z,23.00
2019-02-14T12:33:33.486Z,21.73
2019-02-14T12:36:01.756Z,21.77
2019-02-14T12:38:30.018Z,22.80
2019-02-14T12:40:58.269Z,23.57
2019-02-14T12:43:26.547Z,19.73
2019-02-14T12:45:54.802Z,21.43
2019-02-14T12:48:23.071Z,18.80
2019-02-14T12:50:51.336Z,20.77
2019-02-14T12:53:19.596Z,19.07
2019-02-14T12:55:47.927Z,19.42
2019-02-14T12:58:16.181Z,16.40
2019-02-14T13:00:44.444Z,19.57
2019-02-14T13:03:12.732Z,18.57
2019-02-14T13:05:41.006Z,18.40
2019-02-14T13:08:09.278Z,17.13
2019-02-14T13:10:37.533Z,17.10
2019-02-14T13:13:05.801Z,16.90
2019-02-14T13:15:34.124Z,16.00
2019-02-14T13:18:02.396Z,14.97
2019-02-14T13:20:30.660Z,15.50
2019-02-14T13:22:59.237Z,14.38
2019-02-14T13:25:27.507Z,15.00
2019-02-14T13:27:55.774Z,13.20
2019-02-14T13:30:43.411Z,11.40
2019-02-14T13:33:11.646Z,12.50
2019-02-14T13:35:39.897Z,12.60
2019-02-14T13:38:27.497Z,11.17
2019-02-14T13:40:55.763Z,13.20
2019-02-14T13:43:25.855Z,12.80
2019-02-14T13:45:54.104Z,11.97
2019-02-14T13:48:22.366Z,11.73
2019-02-14T13:50:50.616Z,9.60
2019-02-14T13:53:18.880Z,8.87
2019-02-14T13:55:47.147Z,10.73
2019-02-14T13:58:15.410Z,10.63
2019-02-14T14:00:43.723Z,10.28
2019-02-14T14:03:11.973Z,9.78
2019-02-14T14:05:40.300Z,10.10
2019-02-14T14:08:08.551Z,9.97
2019-02-14T14:10:36.832Z,10.73
2019-02-14T14:13:05.112Z,10.50
2019-02-14T14:15:33.375Z,9.98
2019-02-14T14:18:20.988Z,10.60
2019-02-14T14:20:49.267Z,10.87
2019-02-14T14:23:17.531Z,10.87
2019-02-14T14:25:45.790Z,9.37
2019-02-14T14:28:14.059Z,10.60
2019-02-14T14:30:42.316Z,10.05
2019-02-14T14:33:10.578Z,10.32
2019-02-14T14:35:38.841Z,10.32
2019-02-14T14:38:07.097Z,10.72
2019-02-14T14:40:35.363Z,9.73
2019-02-14T14:48:50.876Z,10.10
2019-02-14T14:51:19.162Z,9.90
2019-02-14T14:53:47.420Z,10.78
2019-02-14T14:56:15.681Z,10.23
2019-02-14T14:58:45.573Z,11.33
2019-02-14T15:01:13.936Z,10.32
2019-02-14T15:03:42.543Z,9.53
2019-02-14T15:06:10.799Z,9.20
2019-02-14T15:08:39.060Z,10.13
2019-02-14T15:11:07.327Z,10.70
2019-02-14T15:13:35.576Z,9.80
2019-02-14T15:16:03.834Z,8.60
2019-02-14T15:18:32.093Z,9.67
2019-02-14T15:21:00.351Z,9.30
2019-02-14T15:23:28.620Z,10.30
2019-02-14T15:25:56.870Z,9.03
2019-02-14T15:28:25.130Z,10.35
2019-02-14T15:30:53.422Z,9.25
2019-02-14T15:33:21.669Z,9.97
2019-02-14T15:35:49.930Z,9.30
2019-02-14T15:38:18.177Z,9.57
2019-02-14T15:40:46.445Z,9.13
2019-02-14T15:43:15.078Z,11.97
2019-02-14T15:45:43.340Z,9.50
2019-02-14T15:48:11.618Z,10.05
2019-02-14T15:50:39.991Z,10.23
2019-02-14T15:53:08.221Z,10.00
2019-02-14T15:55:38.540Z,10.13
2019-02-14T15:58:07.178Z,10.73
2019-02-14T16:00:36.474Z,10.40
2019-02-14T16:03:04.723Z,9.10
2019-02-14T16:05:32.980Z,10.70
2019-02-14T16:08:02.909Z,9.00
2019-02-14T16:10:31.480Z,9.68
2019-02-14T16:13:13.976Z,9.40
2019-02-14T16:15:42.232Z,9.83
2019-02-14T16:18:10.521Z,9.90
2019-02-14T16:20:40.383Z,9.90
2019-02-14T16:23:21.376Z,10.50
2019-02-14T16:25:51.534Z,9.93
2019-02-14T16:28:19.623Z,10.57
2019-02-14T16:30:47.892Z,8.97
2019-02-14T16:33:16.132Z,9.40
2019-02-14T16:35:44.392Z,9.90
2019-02-14T16:38:14.054Z,9.90
2019-02-14T16:40:42.622Z,11.85
2019-02-14T16:43:10.885Z,11.23
2019-02-14T16:45:39.169Z,11.50
2019-02-14T16:48:07.433Z,9.67
2019-02-14T16:50:35.708Z,11.77
2019-02-14T16:53:03.964Z,11.20
2019-02-14T16:55:51.771Z,10.35
2019-02-14T16:58:20.177Z,10.58
2019-02-14T17:00:48.477Z,10.28
2019-02-14T17:03:16.688Z,10.85
2019-02-14T17:05:44.941Z,11.38
2019-02-14T17:08:13.226Z,11.00
2019-02-14T17:10:41.486Z,14.00
2019-02-14T17:13:09.741Z,12.50
2019-02-14T17:15:37.998Z,12.27
2019-02-14T17:18:06.263Z,11.47
2019-02-14T17:20:34.519Z,11.28
2019-02-14T17:23:02.776Z,10.30
2019-02-14T17:25:31.026Z,10.97
2019-02-14T17:27:59.288Z,11.03
2019-02-14T17:30:27.544Z,10.37
2019-02-14T17:32:55.799Z,11.80
2019-02-14T17:35:24.065Z,14.03
2019-02-14T17:37:52.326Z,11.45
2019-02-14T17:40:20.575Z,11.07
2019-02-14T17:42:48.848Z,12.23
2019-02-14T17:45:17.107Z,11.30
2019-02-14T17:47:45.375Z,11.37
2019-02-14T17:50:13.647Z,12.30
2019-02-14T17:52:41.899Z,13.23
2019-02-14T17:55:50.182Z,14.05
2019-02-14T17:58:18.444Z,14.30
2019-02-14T18:00:46.700Z,12.80
2019-02-14T18:03:14.949Z,13.53
2019-02-14T18:05:43.208Z,12.68
2019-02-14T18:08:11.471Z,11.77
2019-02-14T18:10:39.720Z,13.73
2019-02-14T18:13:07.981Z,13.60
2019-02-14T18:15:36.241Z,13.75
2019-02-14T18:18:04.550Z,15.58
2019-02-14T18:20:32.759Z,17.18
2019-02-14T18:23:01.049Z,17.77
2019-02-14T18:25:29.307Z,14.97
2019-02-14T18:27:57.577Z,14.68
2019-02-14T18:30:25.830Z,16.52
2019-02-14T18:32:54.100Z,15.60
2019-02-14T18:35:22.366Z,15.15
2019-02-14T18:37:50.648Z,15.50
2019-02-14T18:40:18.903Z,15.40
2019-02-14T18:43:27.190Z,16.33
2019-02-14T18:45:55.441Z,16.93
2019-02-14T18:48:23.709Z,14.67
2019-02-14T18:50:51.958Z,14.83
2019-02-14T18:53:20.218Z,15.70
2019-02-14T18:55:48.472Z,13.87
2019-02-14T18:58:25.837Z,15.50
2019-02-14T19:00:46.699Z,16.53
2019-02-14T19:03:14.952Z,16.43
2019-02-14T19:05:43.209Z,17.07
2019-02-14T19:08:11.469Z,16.77
2019-02-14T19:10:59.071Z,17.37
2019-02-14T19:13:27.316Z,15.57
2019-02-14T19:15:55.575Z,16.83
2019-02-14T19:18:23.844Z,15.50
2019-02-14T19:20:52.118Z,17.23
2019-02-14T19:23:23.954Z,14.38
2019-02-14T19:25:50.636Z,14.20
2019-02-14T19:28:18.903Z,16.40
2019-02-14T19:30:47.162Z,15.38
2019-02-14T19:33:15.451Z,14.73
2019-02-14T19:36:02.827Z,16.77
2019-02-14T19:38:31.087Z,16.30
2019-02-14T19:40:59.359Z,14.70
2019-02-14T19:43:27.615Z,14.83
2019-02-14T19:45:55.869Z,16.30
2019-02-14T19:48:24.143Z,14.40
2019-02-14T19:50:52.414Z,16.27
2019-02-14T19:53:20.660Z,15.73
2019-02-14T19:55:48.950Z,14.90
2019-02-14T19:58:17.161Z,14.97
2019-02-14T20:00:45.425Z,16.80
2019-02-14T20:03:13.686Z,14.93
2019-02-14T20:05:41.950Z,15.73
2019-02-14T20:08:10.236Z,15.30
2019-02-14T20:10:38.503Z,15.70
2019-02-14T20:13:06.779Z,17.25
2019-02-14T20:15:37.543Z,14.90
2019-02-14T20:18:05.009Z,16.13
2019-02-14T20:20:33.271Z,14.73
2019-02-14T20:23:01.542Z,15.27
2019-02-14T20:26:03.298Z,16.57
2019-02-14T20:28:31.573Z,16.73
2019-02-14T20:30:59.823Z,15.87
2019-02-14T20:33:28.997Z,14.87
2019-02-14T20:35:57.306Z,15.40
2019-02-14T20:38:25.525Z,16.05
2019-02-14T20:40:53.773Z,17.75
2019-02-14T20:43:22.051Z,16.48
2019-02-14T20:45:50.316Z,17.05
2019-02-14T20:48:18.598Z,15.83
2019-02-14T20:50:46.849Z,15.53
2019-02-14T20:53:15.112Z,16.47
2019-02-14T20:55:43.391Z,15.07
2019-02-14T20:58:11.653Z,16.10
2019-02-14T21:00:40.051Z,16.07
2019-02-14T21:03:08.309Z,16.25
2019-02-14T21:05:36.573Z,15.40
2019-02-14T21:08:04.831Z,17.50
2019-02-14T21:13:42.037Z,17.02
2019-02-14T21:16:10.292Z,16.40
2019-02-14T21:18:38.544Z,16.53
2019-02-14T21:21:06.816Z,16.57
2019-02-14T21:23:35.118Z,16.05
2019-02-14T21:26:03.351Z,15.00
2019-02-14T21:28:31.601Z,17.10
2019-02-14T21:30:59.873Z,16.40
2019-02-14T21:33:28.132Z,17.10
2019-02-14T21:35:56.395Z,16.63
2019-02-14T21:38:24.679Z,15.60
2019-02-14T21:40:52.952Z,15.90
2019-02-14T21:43:21.182Z,15.78
2019-02-14T21:45:49.455Z,15.50
2019-02-14T21:48:17.714Z,15.33
2019-02-14T21:50:46.114Z,16.60
2019-02-14T21:53:14.309Z,16.37
2019-02-14T21:55:42.945Z,16.93
2019-02-14T21:58:11.193Z,18.57
2019-02-14T22:00:39.467Z,17.92
2019-02-14T22:03:07.710Z,18.98
2019-02-14T22:05:35.977Z,16.37
2019-02-14T22:08:04.255Z,17.35
2019-02-14T22:10:32.516Z,18.92
2019-02-14T22:13:00.770Z,17.90
2019-02-14T22:16:02.891Z,16.50
2019-02-14T22:18:31.137Z,18.23
2019-02-14T22:20:59.401Z,17.73
2019-02-14T22:23:27.677Z,17.30
2019-02-14T22:25:55.932Z,18.07
2019-02-14T22:28:24.192Z,18.65
2019-02-14T22:30:52.467Z,18.98
2019-02-14T22:33:20.717Z,19.27
2019-02-14T22:35:48.976Z,19.03
2019-02-14T22:38:17.248Z,19.37
2019-02-14T22:40:45.499Z,20.07
2019-02-14T22:43:13.764Z,19.03
2019-02-14T22:45:42.021Z,18.30
2019-02-14T22:48:10.292Z,19.30
2019-02-14T22:50:38.544Z,18.03
2019-02-14T22:53:06.815Z,19.60
2019-02-14T22:55:35.092Z,18.70
2019-02-14T22:58:03.368Z,20.10
2019-02-14T23:01:11.641Z,19.00
2019-02-14T23:03:40.303Z,18.65
2019-02-14T23:06:08.579Z,17.65
2019-02-14T23:08:36.840Z,18.70
2019-02-14T23:11:05.097Z,19.53
2019-02-14T23:13:33.372Z,19.87
2019-02-14T23:16:01.628Z,19.70
2019-02-14T23:18:29.901Z,19.77
2019-02-14T23:20:58.160Z,18.43
2019-02-14T23:23:26.426Z,19.43
2019-02-14T23:25:54.704Z,22.33
2019-02-14T23:28:22.961Z,18.20
2019-02-14T23:30:51.230Z,19.47
2019-02-14T23:33:19.479Z,19.52
2019-02-14T23:35:47.731Z,19.77
2019-02-14T23:38:15.991Z,19.90
2019-02-14T23:40:44.268Z,20.87
2019-02-14T23:43:12.528Z,19.93
2019-02-14T23:45:40.802Z,20.40
2019-02-14T23:48:09.057Z,19.13
2019-02-14T23:50:37.355Z,19.30
2019-02-14T23:53:05.608Z,17.67
2019-02-14T23:55:33.868Z,18.20
2019-02-14T23:58:02.134Z,17.63
